sensor_id;sensor_type;location;lat;lon;timestamp;pressure;altitude;pressure_sealevel;temperature;humidity
55679;BME280;41573;51.446;-2.018;2023-06-14T00:01:01;100651.97;;;18.61;100.00
55679;BME280;41573;51.446;-2.018;2023-06-14T00:03:28;100655.66;;;18.60;100.00
55679;BME280;41573;51.446;-2.018;2023-06-14T00:05:54;100642.31;;;18.59;100.00
55679;BME280;41573;51.446;-2.018;2023-06-14T00:08:19;100649.69;;;18.57;100.00
55679;BME280;41573;51.446;-2.018;2023-06-14T00:10:46;100651.81;;;18.53;100.00
55679;BME280;41573;51.446;-2.018;2023-06-14T00:13:11;100651.56;;;18.47;100.00
55679;BME280;41573;51.446;-2.018;2023-06-14T00:15:38;100652.38;;;18.37;100.00
55679;BME280;41573;51.446;-2.018;2023-06-14T00:18:04;100662.44;;;18.16;100.00
55679;BME280;41573;51.446;-2.018;2023-06-14T00:20:31;100667.44;;;17.70;100.00
55679;BME280;41573;51.446;-2.018;2023-06-14T00:22:58;100663.25;;;17.56;100.00
55679;BME280;41573;51.446;-2.018;2023-06-14T00:25:24;100658.38;;;17.40;100.00
55679;BME280;41573;51.446;-2.018;2023-06-14T00:27:53;100658.34;;;17.30;100.00
55679;BME280;41573;51.446;-2.018;2023-06-14T00:30:19;100653.38;;;17.26;100.00
55679;BME280;41573;51.446;-2.018;2023-06-14T00:32:45;100642.13;;;17.20;100.00
55679;BME280;41573;51.446;-2.018;2023-06-14T00:35:11;100642.69;;;17.14;100.00
55679;BME280;41573;51.446;-2.018;2023-06-14T00:37:38;100637.31;;;17.14;100.00
55679;BME280;41573;51.446;-2.018;2023-06-14T00:40:04;100642.09;;;17.11;100.00
55679;BME280;41573;51.446;-2.018;2023-06-14T00:42:30;100647.00;;;17.05;100.00
55679;BME280;41573;51.446;-2.018;2023-06-14T00:44:56;100639.94;;;17.04;100.00
55679;BME280;41573;51.446;-2.018;2023-06-14T00:47:21;100633.81;;;17.02;100.00
55679;BME280;41573;51.446;-2.018;2023-06-14T00:49:48;100636.09;;;16.97;100.00
55679;BME280;41573;51.446;-2.018;2023-06-14T00:52:15;100627.75;;;17.00;100.00
55679;BME280;41573;51.446;-2.018;2023-06-14T00:54:41;100631.88;;;17.04;100.00
55679;BME280;41573;51.446;-2.018;2023-06-14T00:57:08;100634.84;;;17.01;100.00
55679;BME280;41573;51.446;-2.018;2023-06-14T00:59:36;100634.41;;;17.06;100.00
55679;BME280;41573;51.446;-2.018;2023-06-14T01:02:04;100636.00;;;17.09;100.00
55679;BME280;41573;51.446;-2.018;2023-06-14T01:04:29;100629.63;;;17.10;100.00
55679;BME280;41573;51.446;-2.018;2023-06-14T01:07:15;100627.94;;;17.09;100.00
55679;BME280;41573;51.446;-2.018;2023-06-14T01:15:08;100622.56;;;17.09;100.00
55679;BME280;41573;51.446;-2.018;2023-06-14T01:17:35;100622.78;;;17.05;100.00
55679;BME280;41573;51.446;-2.018;2023-06-14T01:20:02;100635.06;;;16.98;100.00
55679;BME280;41573;51.446;-2.018;2023-06-14T01:22:28;100634.34;;;16.75;100.00
55679;BME280;41573;51.446;-2.018;2023-06-14T01:24:54;100640.63;;;16.43;100.00
55679;BME280;41573;51.446;-2.018;2023-06-14T01:27:24;100627.69;;;16.37;100.00
55679;BME280;41573;51.446;-2.018;2023-06-14T01:29:54;100623.22;;;16.26;100.00
55679;BME280;41573;51.446;-2.018;2023-06-14T01:32:23;100624.72;;;16.19;100.00
55679;BME280;41573;51.446;-2.018;2023-06-14T01:34:49;100623.00;;;16.18;100.00
55679;BME280;41573;51.446;-2.018;2023-06-14T01:37:15;100624.97;;;16.16;100.00
55679;BME280;41573;51.446;-2.018;2023-06-14T01:39:43;100616.72;;;16.08;100.00
55679;BME280;41573;51.446;-2.018;2023-06-14T01:42:10;100623.81;;;15.86;100.00
55679;BME280;41573;51.446;-2.018;2023-06-14T01:44:36;100624.22;;;15.81;100.00
55679;BME280;41573;51.446;-2.018;2023-06-14T01:47:02;100624.56;;;15.77;100.00
55679;BME280;41573;51.446;-2.018;2023-06-14T01:49:28;100630.44;;;15.71;100.00
55679;BME280;41573;51.446;-2.018;2023-06-14T01:51:53;100631.16;;;15.61;100.00
55679;BME280;41573;51.446;-2.018;2023-06-14T01:54:18;100612.38;;;15.61;100.00
55679;BME280;41573;51.446;-2.018;2023-06-14T01:56:44;100613.09;;;15.63;100.00
55679;BME280;41573;51.446;-2.018;2023-06-14T01:59:09;100620.06;;;15.66;100.00
55679;BME280;41573;51.446;-2.018;2023-06-14T02:01:35;100608.22;;;15.68;100.00
55679;BME280;41573;51.446;-2.018;2023-06-14T02:04:01;100607.25;;;15.69;100.00
55679;BME280;41573;51.446;-2.018;2023-06-14T02:06:27;100612.38;;;15.73;100.00
55679;BME280;41573;51.446;-2.018;2023-06-14T02:08:53;100604.69;;;15.68;100.00
55679;BME280;41573;51.446;-2.018;2023-06-14T02:11:18;100610.66;;;15.72;100.00
55679;BME280;41573;51.446;-2.018;2023-06-14T02:13:44;100616.63;;;15.75;100.00
55679;BME280;41573;51.446;-2.018;2023-06-14T02:16:09;100616.38;;;15.78;100.00
55679;BME280;41573;51.446;-2.018;2023-06-14T02:18:36;100615.31;;;15.81;100.00
55679;BME280;41573;51.446;-2.018;2023-06-14T02:21:01;100610.16;;;15.78;100.00
55679;BME280;41573;51.446;-2.018;2023-06-14T02:23:27;100617.03;;;15.71;100.00
55679;BME280;41573;51.446;-2.018;2023-06-14T02:25:52;100621.66;;;15.68;100.00
55679;BME280;41573;51.446;-2.018;2023-06-14T02:28:18;100616.53;;;15.65;100.00
55679;BME280;41573;51.446;-2.018;2023-06-14T02:30:43;100620.69;;;15.58;100.00
55679;BME280;41573;51.446;-2.018;2023-06-14T02:33:09;100615.44;;;15.57;100.00
55679;BME280;41573;51.446;-2.018;2023-06-14T02:35:38;100624.97;;;15.49;100.00
55679;BME280;41573;51.446;-2.018;2023-06-14T02:38:03;100613.03;;;15.42;100.00
55679;BME280;41573;51.446;-2.018;2023-06-14T02:40:28;100623.25;;;15.37;100.00
55679;BME280;41573;51.446;-2.018;2023-06-14T02:42:54;100625.22;;;15.24;100.00
55679;BME280;41573;51.446;-2.018;2023-06-14T02:45:19;100614.38;;;15.03;100.00
55679;BME280;41573;51.446;-2.018;2023-06-14T02:47:46;100620.56;;;14.92;100.00
55679;BME280;41573;51.446;-2.018;2023-06-14T02:50:11;100609.22;;;14.77;100.00
55679;BME280;41573;51.446;-2.018;2023-06-14T02:52:37;100608.59;;;14.73;100.00
55679;BME280;41573;51.446;-2.018;2023-06-14T02:55:03;100604.91;;;14.63;100.00
55679;BME280;41573;51.446;-2.018;2023-06-14T02:57:29;100617.66;;;14.59;100.00
55679;BME280;41573;51.446;-2.018;2023-06-14T02:59:54;100607.41;;;14.53;100.00
55679;BME280;41573;51.446;-2.018;2023-06-14T03:02:20;100618.38;;;14.50;100.00
55679;BME280;41573;51.446;-2.018;2023-06-14T03:04:45;100625.03;;;14.44;100.00
55679;BME280;41573;51.446;-2.018;2023-06-14T03:07:12;100622.47;;;14.43;100.00
55679;BME280;41573;51.446;-2.018;2023-06-14T03:09:38;100632.44;;;14.41;100.00
55679;BME280;41573;51.446;-2.018;2023-06-14T03:12:05;100639.00;;;14.37;100.00
55679;BME280;41573;51.446;-2.018;2023-06-14T03:14:32;100653.59;;;14.32;100.00
55679;BME280;41573;51.446;-2.018;2023-06-14T03:16:57;100646.78;;;14.28;100.00
55679;BME280;41573;51.446;-2.018;2023-06-14T03:19:24;100652.59;;;14.22;100.00
55679;BME280;41573;51.446;-2.018;2023-06-14T03:21:50;100656.69;;;14.15;100.00
55679;BME280;41573;51.446;-2.018;2023-06-14T03:24:15;100652.53;;;14.11;100.00
55679;BME280;41573;51.446;-2.018;2023-06-14T03:26:45;100643.00;;;14.07;100.00
55679;BME280;41573;51.446;-2.018;2023-06-14T03:29:10;100663.16;;;14.00;100.00
55679;BME280;41573;51.446;-2.018;2023-06-14T03:31:35;100672.38;;;13.95;100.00
55679;BME280;41573;51.446;-2.018;2023-06-14T03:34:01;100677.13;;;13.92;100.00
55679;BME280;41573;51.446;-2.018;2023-06-14T03:36:27;100676.47;;;13.88;100.00
55679;BME280;41573;51.446;-2.018;2023-06-14T03:38:53;100683.78;;;13.86;100.00
55679;BME280;41573;51.446;-2.018;2023-06-14T03:41:19;100687.66;;;13.82;100.00
55679;BME280;41573;51.446;-2.018;2023-06-14T03:43:45;100684.88;;;13.71;100.00
55679;BME280;41573;51.446;-2.018;2023-06-14T03:46:10;100687.25;;;13.62;100.00
55679;BME280;41573;51.446;-2.018;2023-06-14T03:48:35;100692.63;;;13.50;100.00
55679;BME280;41573;51.446;-2.018;2023-06-14T03:51:01;100700.53;;;13.38;100.00
55679;BME280;41573;51.446;-2.018;2023-06-14T03:53:27;100701.69;;;13.34;100.00
55679;BME280;41573;51.446;-2.018;2023-06-14T03:55:54;100700.31;;;13.28;100.00
55679;BME280;41573;51.446;-2.018;2023-06-14T03:58:19;100695.94;;;13.27;100.00
55679;BME280;41573;51.446;-2.018;2023-06-14T04:00:45;100685.31;;;13.26;100.00
55679;BME280;41573;51.446;-2.018;2023-06-14T04:03:11;100690.16;;;13.21;100.00
55679;BME280;41573;51.446;-2.018;2023-06-14T04:05:38;100685.75;;;13.20;100.00
55679;BME280;41573;51.446;-2.018;2023-06-14T04:08:07;100677.97;;;13.17;100.00
55679;BME280;41573;51.446;-2.018;2023-06-14T04:10:34;100672.72;;;13.15;100.00
55679;BME280;41573;51.446;-2.018;2023-06-14T04:12:59;100669.28;;;13.13;100.00
55679;BME280;41573;51.446;-2.018;2023-06-14T04:15:24;100670.38;;;13.10;100.00
55679;BME280;41573;51.446;-2.018;2023-06-14T04:17:50;100660.75;;;13.08;100.00
55679;BME280;41573;51.446;-2.018;2023-06-14T04:20:16;100659.03;;;13.07;100.00
55679;BME280;41573;51.446;-2.018;2023-06-14T04:22:42;100665.44;;;13.04;100.00
55679;BME280;41573;51.446;-2.018;2023-06-14T04:25:08;100647.66;;;13.03;100.00
55679;BME280;41573;51.446;-2.018;2023-06-14T04:27:33;100652.84;;;13.06;100.00
55679;BME280;41573;51.446;-2.018;2023-06-14T04:30:02;100643.81;;;13.07;100.00
55679;BME280;41573;51.446;-2.018;2023-06-14T04:32:28;100645.31;;;13.11;100.00
55679;BME280;41573;51.446;-2.018;2023-06-14T04:34:55;100646.31;;;13.10;100.00
55679;BME280;41573;51.446;-2.018;2023-06-14T04:37:24;100642.03;;;13.08;100.00
55679;BME280;41573;51.446;-2.018;2023-06-14T04:39:51;100637.75;;;13.05;100.00
55679;BME280;41573;51.446;-2.018;2023-06-14T04:42:17;100647.66;;;13.03;100.00
55679;BME280;41573;51.446;-2.018;2023-06-14T04:44:46;100648.66;;;13.02;100.00
55679;BME280;41573;51.446;-2.018;2023-06-14T04:47:13;100638.81;;;13.03;100.00
55679;BME280;41573;51.446;-2.018;2023-06-14T04:49:39;100636.78;;;13.06;100.00
55679;BME280;41573;51.446;-2.018;2023-06-14T04:52:06;100629.38;;;13.10;100.00
55679;BME280;41573;51.446;-2.018;2023-06-14T04:54:32;100632.06;;;13.10;100.00
55679;BME280;41573;51.446;-2.018;2023-06-14T04:56:59;100635.50;;;13.12;100.00
55679;BME280;41573;51.446;-2.018;2023-06-14T04:59:24;100631.66;;;13.16;100.00
55679;BME280;41573;51.446;-2.018;2023-06-14T05:01:50;100631.66;;;13.16;100.00
55679;BME280;41573;51.446;-2.018;2023-06-14T05:04:17;100626.09;;;13.19;100.00
55679;BME280;41573;51.446;-2.018;2023-06-14T05:06:43;100626.94;;;13.20;100.00
55679;BME280;41573;51.446;-2.018;2023-06-14T05:09:13;100623.31;;;13.21;100.00
55679;BME280;41573;51.446;-2.018;2023-06-14T05:11:39;100612.50;;;13.22;100.00
55679;BME280;41573;51.446;-2.018;2023-06-14T05:14:09;100620.28;;;13.25;100.00
55679;BME280;41573;51.446;-2.018;2023-06-14T05:16:34;100611.09;;;13.30;100.00
55679;BME280;41573;51.446;-2.018;2023-06-14T05:19:00;100620.94;;;13.29;100.00
55679;BME280;41573;51.446;-2.018;2023-06-14T05:21:26;100615.47;;;13.31;100.00
55679;BME280;41573;51.446;-2.018;2023-06-14T05:23:51;100608.06;;;13.34;100.00
55679;BME280;41573;51.446;-2.018;2023-06-14T05:26:17;100602.97;;;13.44;100.00
55679;BME280;41573;51.446;-2.018;2023-06-14T05:28:42;100605.09;;;13.52;100.00
55679;BME280;41573;51.446;-2.018;2023-06-14T05:31:08;100596.72;;;13.56;100.00
55679;BME280;41573;51.446;-2.018;2023-06-14T05:33:33;100596.28;;;13.62;100.00
55679;BME280;41573;51.446;-2.018;2023-06-14T05:35:58;100592.94;;;13.72;100.00
55679;BME280;41573;51.446;-2.018;2023-06-14T05:38:24;100591.50;;;13.79;100.00
55679;BME280;41573;51.446;-2.018;2023-06-14T05:40:50;100589.56;;;13.81;100.00
55679;BME280;41573;51.446;-2.018;2023-06-14T05:43:15;100588.25;;;13.87;100.00
55679;BME280;41573;51.446;-2.018;2023-06-14T05:45:41;100571.84;;;13.91;100.00
55679;BME280;41573;51.446;-2.018;2023-06-14T05:48:06;100567.13;;;13.95;100.00
55679;BME280;41573;51.446;-2.018;2023-06-14T05:50:32;100571.91;;;14.03;100.00
55679;BME280;41573;51.446;-2.018;2023-06-14T05:52:57;100560.75;;;14.09;100.00
55679;BME280;41573;51.446;-2.018;2023-06-14T05:55:23;100562.00;;;14.16;100.00
55679;BME280;41573;51.446;-2.018;2023-06-14T05:57:48;100558.00;;;14.22;100.00
55679;BME280;41573;51.446;-2.018;2023-06-14T06:00:14;100557.50;;;14.28;100.00
55679;BME280;41573;51.446;-2.018;2023-06-14T06:02:44;100555.09;;;14.36;100.00
55679;BME280;41573;51.446;-2.018;2023-06-14T06:05:10;100551.59;;;14.36;100.00
55679;BME280;41573;51.446;-2.018;2023-06-14T06:07:37;100551.38;;;14.50;100.00
55679;BME280;41573;51.446;-2.018;2023-06-14T06:10:03;100549.06;;;14.57;100.00
55679;BME280;41573;51.446;-2.018;2023-06-14T06:12:28;100536.56;;;14.69;100.00
55679;BME280;41573;51.446;-2.018;2023-06-14T06:14:55;100557.53;;;14.75;100.00
55679;BME280;41573;51.446;-2.018;2023-06-14T06:17:20;100550.94;;;14.79;100.00
55679;BME280;41573;51.446;-2.018;2023-06-14T06:19:46;100540.34;;;14.89;100.00
55679;BME280;41573;51.446;-2.018;2023-06-14T06:22:11;100539.75;;;14.96;100.00
55679;BME280;41573;51.446;-2.018;2023-06-14T06:24:37;100540.94;;;15.04;100.00
55679;BME280;41573;51.446;-2.018;2023-06-14T06:27:03;100536.84;;;15.11;100.00
55679;BME280;41573;51.446;-2.018;2023-06-14T06:29:28;100531.09;;;15.15;100.00
55679;BME280;41573;51.446;-2.018;2023-06-14T06:31:54;100528.66;;;15.24;100.00
55679;BME280;41573;51.446;-2.018;2023-06-14T06:34:21;100528.72;;;15.33;100.00
55679;BME280;41573;51.446;-2.018;2023-06-14T06:36:47;100532.66;;;15.41;100.00
55679;BME280;41573;51.446;-2.018;2023-06-14T06:39:12;100544.81;;;15.45;100.00
55679;BME280;41573;51.446;-2.018;2023-06-14T06:41:38;100544.81;;;15.45;100.00
55679;BME280;41573;51.446;-2.018;2023-06-14T06:44:08;100543.56;;;15.60;100.00
55679;BME280;41573;51.446;-2.018;2023-06-14T06:46:36;100549.41;;;15.65;100.00
55679;BME280;41573;51.446;-2.018;2023-06-14T06:49:05;100543.41;;;15.73;100.00
55679;BME280;41573;51.446;-2.018;2023-06-14T06:51:30;100548.41;;;15.78;100.00
55679;BME280;41573;51.446;-2.018;2023-06-14T06:53:56;100536.09;;;15.87;100.00
55679;BME280;41573;51.446;-2.018;2023-06-14T06:56:21;100534.59;;;15.94;100.00
55679;BME280;41573;51.446;-2.018;2023-06-14T06:58:50;100549.06;;;16.02;100.00
55679;BME280;41573;51.446;-2.018;2023-06-14T07:01:16;100536.69;;;16.11;100.00
55679;BME280;41573;51.446;-2.018;2023-06-14T07:03:42;100550.91;;;16.23;100.00
55679;BME280;41573;51.446;-2.018;2023-06-14T07:06:07;100558.22;;;16.32;100.00
55679;BME280;41573;51.446;-2.018;2023-06-14T07:08:32;100549.13;;;16.45;100.00
55679;BME280;41573;51.446;-2.018;2023-06-14T07:10:58;100556.63;;;16.51;100.00
55679;BME280;41573;51.446;-2.018;2023-06-14T07:13:23;100559.66;;;16.58;100.00
55679;BME280;41573;51.446;-2.018;2023-06-14T07:15:49;100558.19;;;16.75;100.00
55679;BME280;41573;51.446;-2.018;2023-06-14T07:18:14;100560.69;;;16.87;100.00
55679;BME280;41573;51.446;-2.018;2023-06-14T07:20:40;100563.00;;;16.92;100.00
55679;BME280;41573;51.446;-2.018;2023-06-14T07:23:05;100570.38;;;17.00;100.00
55679;BME280;41573;51.446;-2.018;2023-06-14T07:25:31;100581.59;;;17.05;100.00
55679;BME280;41573;51.446;-2.018;2023-06-14T07:27:56;100575.81;;;17.10;100.00
55679;BME280;41573;51.446;-2.018;2023-06-14T07:30:22;100581.38;;;17.18;100.00
55679;BME280;41573;51.446;-2.018;2023-06-14T07:32:51;100580.38;;;17.19;100.00
55679;BME280;41573;51.446;-2.018;2023-06-14T07:35:17;100583.97;;;17.29;100.00
55679;BME280;41573;51.446;-2.018;2023-06-14T07:37:43;100601.34;;;17.25;100.00
55679;BME280;41573;51.446;-2.018;2023-06-14T07:40:09;100605.03;;;17.24;100.00
55679;BME280;41573;51.446;-2.018;2023-06-14T07:42:35;100601.25;;;17.36;100.00
55679;BME280;41573;51.446;-2.018;2023-06-14T07:45:02;100601.16;;;17.48;100.00
55679;BME280;41573;51.446;-2.018;2023-06-14T07:47:27;100598.50;;;17.57;100.00
55679;BME280;41573;51.446;-2.018;2023-06-14T07:49:52;100600.50;;;17.65;100.00
55679;BME280;41573;51.446;-2.018;2023-06-14T07:52:18;100613.97;;;17.75;100.00
55679;BME280;41573;51.446;-2.018;2023-06-14T07:54:43;100620.13;;;17.87;100.00
55679;BME280;41573;51.446;-2.018;2023-06-14T07:57:08;100619.75;;;18.01;100.00
55679;BME280;41573;51.446;-2.018;2023-06-14T07:59:34;100617.47;;;18.06;100.00
55679;BME280;41573;51.446;-2.018;2023-06-14T08:02:00;100624.28;;;18.20;100.00
55679;BME280;41573;51.446;-2.018;2023-06-14T08:04:25;100625.56;;;18.26;100.00
55679;BME280;41573;51.446;-2.018;2023-06-14T08:06:51;100631.41;;;18.31;100.00
55679;BME280;41573;51.446;-2.018;2023-06-14T08:09:16;100633.09;;;18.42;100.00
55679;BME280;41573;51.446;-2.018;2023-06-14T08:11:42;100641.16;;;18.52;100.00
55679;BME280;41573;51.446;-2.018;2023-06-14T08:14:08;100651.56;;;18.56;100.00
55679;BME280;41573;51.446;-2.018;2023-06-14T08:16:33;100658.47;;;18.69;100.00
55679;BME280;41573;51.446;-2.018;2023-06-14T08:18:58;100660.78;;;18.73;100.00
55679;BME280;41573;51.446;-2.018;2023-06-14T08:21:24;100653.78;;;18.81;100.00
55679;BME280;41573;51.446;-2.018;2023-06-14T08:23:54;100654.94;;;18.88;100.00
55679;BME280;41573;51.446;-2.018;2023-06-14T08:26:20;100652.94;;;18.80;100.00
55679;BME280;41573;51.446;-2.018;2023-06-14T08:28:46;100647.00;;;18.57;100.00
55679;BME280;41573;51.446;-2.018;2023-06-14T08:31:11;100656.47;;;19.00;100.00
55679;BME280;41573;51.446;-2.018;2023-06-14T08:33:36;100663.44;;;19.03;100.00
55679;BME280;41573;51.446;-2.018;2023-06-14T08:36:02;100672.78;;;19.08;100.00
55679;BME280;41573;51.446;-2.018;2023-06-14T08:38:27;100674.94;;;19.15;100.00
55679;BME280;41573;51.446;-2.018;2023-06-14T08:40:57;100669.06;;;19.29;100.00
55679;BME280;41573;51.446;-2.018;2023-06-14T08:43:22;100673.84;;;19.35;100.00
55679;BME280;41573;51.446;-2.018;2023-06-14T08:45:49;100662.44;;;19.41;100.00
55679;BME280;41573;51.446;-2.018;2023-06-14T08:48:19;100675.09;;;19.51;100.00
55679;BME280;41573;51.446;-2.018;2023-06-14T08:50:46;100679.06;;;19.09;100.00
55679;BME280;41573;51.446;-2.018;2023-06-14T08:53:14;100665.59;;;18.99;100.00
55679;BME280;41573;51.446;-2.018;2023-06-14T08:55:41;100675.41;;;19.38;100.00
55679;BME280;41573;51.446;-2.018;2023-06-14T08:58:08;100672.97;;;19.44;100.00
55679;BME280;41573;51.446;-2.018;2023-06-14T09:00:34;100668.22;;;19.19;100.00
55679;BME280;41573;51.446;-2.018;2023-06-14T09:03:03;100667.06;;;19.21;100.00
55679;BME280;41573;51.446;-2.018;2023-06-14T09:05:28;100672.91;;;19.26;100.00
55679;BME280;41573;51.446;-2.018;2023-06-14T09:07:54;100671.81;;;19.85;100.00
55679;BME280;41573;51.446;-2.018;2023-06-14T09:10:20;100685.22;;;20.04;100.00
55679;BME280;41573;51.446;-2.018;2023-06-14T09:12:46;100684.91;;;20.07;100.00
55679;BME280;41573;51.446;-2.018;2023-06-14T09:15:12;100698.81;;;20.12;100.00
55679;BME280;41573;51.446;-2.018;2023-06-14T09:17:39;100684.69;;;20.19;100.00
55679;BME280;41573;51.446;-2.018;2023-06-14T09:20:08;100705.03;;;20.23;100.00
55679;BME280;41573;51.446;-2.018;2023-06-14T09:22:43;100707.78;;;20.31;100.00
55679;BME280;41573;51.446;-2.018;2023-06-14T09:25:09;100705.81;;;20.33;100.00
55679;BME280;41573;51.446;-2.018;2023-06-14T09:27:34;100712.16;;;20.42;100.00
55679;BME280;41573;51.446;-2.018;2023-06-14T09:30:02;100703.25;;;20.49;100.00
55679;BME280;41573;51.446;-2.018;2023-06-14T09:32:28;100701.25;;;20.52;100.00
55679;BME280;41573;51.446;-2.018;2023-06-14T09:34:53;100704.72;;;20.62;100.00
55679;BME280;41573;51.446;-2.018;2023-06-14T09:37:29;100711.53;;;20.66;100.00
55679;BME280;41573;51.446;-2.018;2023-06-14T09:39:55;100716.69;;;20.59;100.00
55679;BME280;41573;51.446;-2.018;2023-06-14T09:42:21;100714.97;;;20.68;100.00
55679;BME280;41573;51.446;-2.018;2023-06-14T09:44:48;100712.00;;;20.79;100.00
55679;BME280;41573;51.446;-2.018;2023-06-14T09:47:18;100723.78;;;20.88;100.00
55679;BME280;41573;51.446;-2.018;2023-06-14T09:49:44;100728.38;;;20.96;100.00
55679;BME280;41573;51.446;-2.018;2023-06-14T09:52:20;100722.03;;;21.05;100.00
55679;BME280;41573;51.446;-2.018;2023-06-14T09:54:47;100725.75;;;21.04;100.00
55679;BME280;41573;51.446;-2.018;2023-06-14T09:57:22;100722.78;;;21.15;100.00
55679;BME280;41573;51.446;-2.018;2023-06-14T09:59:49;100731.81;;;21.24;100.00
55679;BME280;41573;51.446;-2.018;2023-06-14T10:02:29;100727.56;;;21.48;100.00
55679;BME280;41573;51.446;-2.018;2023-06-14T10:05:08;100724.91;;;21.56;100.00
55679;BME280;41573;51.446;-2.018;2023-06-14T10:07:53;100733.81;;;21.66;100.00
55679;BME280;41573;51.446;-2.018;2023-06-14T10:10:20;100730.13;;;21.76;100.00
55679;BME280;41573;51.446;-2.018;2023-06-14T10:12:46;100739.47;;;21.81;100.00
55679;BME280;41573;51.446;-2.018;2023-06-14T10:15:19;100730.97;;;21.50;100.00
55679;BME280;41573;51.446;-2.018;2023-06-14T10:17:50;100737.34;;;21.67;100.00
55679;BME280;41573;51.446;-2.018;2023-06-14T10:20:48;100738.84;;;21.61;100.00
55679;BME280;41573;51.446;-2.018;2023-06-14T10:23:19;100749.00;;;21.94;100.00
55679;BME280;41573;51.446;-2.018;2023-06-14T10:25:45;100742.22;;;21.90;100.00
55679;BME280;41573;51.446;-2.018;2023-06-14T10:28:19;100733.66;;;22.11;100.00
55679;BME280;41573;51.446;-2.018;2023-06-14T10:31:04;100730.31;;;22.25;100.00
55679;BME280;41573;51.446;-2.018;2023-06-14T10:33:31;100736.06;;;22.22;100.00
55679;BME280;41573;51.446;-2.018;2023-06-14T10:36:28;100736.56;;;22.26;100.00
55679;BME280;41573;51.446;-2.018;2023-06-14T10:39:04;100738.34;;;22.35;100.00
55679;BME280;41573;51.446;-2.018;2023-06-14T10:41:30;100737.81;;;22.40;100.00
55679;BME280;41573;51.446;-2.018;2023-06-14T10:46:41;100730.91;;;22.53;100.00
55679;BME280;41573;51.446;-2.018;2023-06-14T10:49:11;100739.22;;;22.52;100.00
55679;BME280;41573;51.446;-2.018;2023-06-14T10:51:42;100731.41;;;22.65;100.00
55679;BME280;41573;51.446;-2.018;2023-06-14T10:54:15;100731.44;;;22.73;100.00
55679;BME280;41573;51.446;-2.018;2023-06-14T10:56:52;100733.63;;;22.78;100.00
55679;BME280;41573;51.446;-2.018;2023-06-14T10:59:18;100724.84;;;22.84;100.00
55679;BME280;41573;51.446;-2.018;2023-06-14T11:01:54;100732.09;;;22.84;100.00
55679;BME280;41573;51.446;-2.018;2023-06-14T11:04:27;100726.16;;;22.97;100.00
55679;BME280;41573;51.446;-2.018;2023-06-14T11:12:28;100715.66;;;23.27;100.00
55679;BME280;41573;51.446;-2.018;2023-06-14T11:14:56;100708.31;;;23.44;100.00
55679;BME280;41573;51.446;-2.018;2023-06-14T11:17:22;100713.25;;;23.48;100.00
55679;BME280;41573;51.446;-2.018;2023-06-14T11:19:47;100706.56;;;23.59;100.00
55679;BME280;41573;51.446;-2.018;2023-06-14T11:22:13;100703.81;;;23.67;100.00
55679;BME280;41573;51.446;-2.018;2023-06-14T11:24:40;100703.31;;;23.64;100.00
55679;BME280;41573;51.446;-2.018;2023-06-14T11:27:05;100701.91;;;23.76;100.00
55679;BME280;41573;51.446;-2.018;2023-06-14T11:29:31;100693.72;;;23.84;100.00
55679;BME280;41573;51.446;-2.018;2023-06-14T11:31:57;100689.50;;;23.90;100.00
55679;BME280;41573;51.446;-2.018;2023-06-14T11:34:22;100681.13;;;24.00;100.00
55679;BME280;41573;51.446;-2.018;2023-06-14T11:36:47;100655.91;;;24.06;100.00
55679;BME280;41573;51.446;-2.018;2023-06-14T11:39:13;100652.59;;;24.19;100.00
55679;BME280;41573;51.446;-2.018;2023-06-14T11:41:41;100649.97;;;24.34;100.00
55679;BME280;41573;51.446;-2.018;2023-06-14T11:44:08;100650.88;;;24.49;100.00
55679;BME280;41573;51.446;-2.018;2023-06-14T11:46:34;100646.56;;;24.55;100.00
55679;BME280;41573;51.446;-2.018;2023-06-14T11:49:02;100644.69;;;24.55;100.00
55679;BME280;41573;51.446;-2.018;2023-06-14T11:51:36;100637.81;;;24.68;100.00
55679;BME280;41573;51.446;-2.018;2023-06-14T11:54:03;100633.00;;;24.70;100.00
55679;BME280;41573;51.446;-2.018;2023-06-14T11:56:29;100636.69;;;24.77;100.00
55679;BME280;41573;51.446;-2.018;2023-06-14T11:58:57;100633.19;;;24.68;100.00
55679;BME280;41573;51.446;-2.018;2023-06-14T12:01:23;100629.53;;;24.76;100.00
55679;BME280;41573;51.446;-2.018;2023-06-14T12:03:50;100635.97;;;24.83;100.00
55679;BME280;41573;51.446;-2.018;2023-06-14T12:06:19;100634.19;;;24.90;100.00
55679;BME280;41573;51.446;-2.018;2023-06-14T12:08:50;100629.41;;;24.92;100.00
55679;BME280;41573;51.446;-2.018;2023-06-14T12:11:16;100624.25;;;24.98;100.00
55679;BME280;41573;51.446;-2.018;2023-06-14T12:13:42;100620.38;;;25.07;100.00
55679;BME280;41573;51.446;-2.018;2023-06-14T12:16:09;100622.56;;;25.26;100.00
55679;BME280;41573;51.446;-2.018;2023-06-14T12:18:35;100624.00;;;25.37;100.00
55679;BME280;41573;51.446;-2.018;2023-06-14T12:21:06;100601.44;;;25.43;100.00
55679;BME280;41573;51.446;-2.018;2023-06-14T12:23:48;100601.16;;;25.53;100.00
55679;BME280;41573;51.446;-2.018;2023-06-14T12:26:19;100597.53;;;25.68;100.00
55679;BME280;41573;51.446;-2.018;2023-06-14T12:28:46;100582.09;;;25.75;100.00
55679;BME280;41573;51.446;-2.018;2023-06-14T12:31:14;100566.25;;;25.85;100.00
55679;BME280;41573;51.446;-2.018;2023-06-14T12:33:40;100569.66;;;25.87;100.00
55679;BME280;41573;51.446;-2.018;2023-06-14T12:36:10;100561.72;;;25.92;100.00
55679;BME280;41573;51.446;-2.018;2023-06-14T12:38:36;100575.44;;;25.99;100.00
55679;BME280;41573;51.446;-2.018;2023-06-14T12:41:02;100604.13;;;25.95;100.00
55679;BME280;41573;51.446;-2.018;2023-06-14T12:43:28;100614.22;;;25.94;100.00